createdAt,value
2022-08-28T03:16:49.746Z,17.02
2022-08-28T03:19:17.934Z,13.93
2022-08-28T03:21:46.074Z,16.70
2022-08-28T03:24:15.141Z,16.50
2022-08-28T03:26:44.137Z,15.27
2022-08-28T03:29:12.243Z,13.10
2022-08-28T03:31:40.573Z,13.25
2022-08-28T03:34:10.328Z,13.40
2022-08-28T03:36:38.397Z,11.90
2022-08-28T03:39:07.790Z,12.68
2022-08-28T03:41:35.931Z,12.90
2022-08-28T03:44:04.933Z,14.10
2022-08-28T03:46:33.990Z,14.88
2022-08-28T03:49:03.471Z,11.48
2022-08-28T03:51:34.734Z,14.43
2022-08-28T03:54:06.359Z,10.52
2022-08-28T03:56:34.595Z,13.57
2022-08-28T03:59:05.239Z,11.10
2022-08-28T04:01:34.507Z,11.43
2022-08-28T04:04:02.683Z,12.82
2022-08-28T04:06:30.805Z,13.20
2022-08-28T04:09:00.530Z,14.30
2022-08-28T04:11:29.186Z,12.98
2022-08-28T04:13:57.963Z,16.90
2022-08-28T04:16:26.130Z,11.15
2022-08-28T04:18:54.582Z,10.70
2022-08-28T04:21:24.881Z,12.77
2022-08-28T04:23:53.654Z,11.10
2022-08-28T04:26:25.584Z,14.50
2022-08-28T04:28:55.092Z,14.55
2022-08-28T04:31:31.156Z,10.45
2022-08-28T04:34:01.663Z,12.07
2022-08-28T04:36:30.069Z,11.30
2022-08-28T04:38:58.898Z,13.40
2022-08-28T04:41:28.964Z,10.98
2022-08-28T04:43:58.266Z,11.48
2022-08-28T04:46:26.859Z,15.15
2022-08-28T04:48:59.898Z,11.65
2022-08-28T04:51:28.978Z,19.05
2022-08-28T04:53:57.385Z,13.90
2022-08-28T04:56:26.602Z,15.30
2022-08-28T04:58:56.205Z,13.05
2022-08-28T05:01:25.905Z,13.38
2022-08-28T05:03:57.620Z,11.48
2022-08-28T05:06:28.083Z,12.30
2022-08-28T05:08:58.031Z,10.68
2022-08-28T05:11:33.215Z,11.02
2022-08-28T05:14:05.230Z,10.90
2022-08-28T05:16:34.689Z,10.40
2022-08-28T05:19:03.545Z,10.35
2022-08-28T05:21:31.618Z,13.43
2022-08-28T05:23:59.863Z,12.10
2022-08-28T05:26:29.879Z,12.27
2022-08-28T05:28:59.944Z,12.15
2022-08-28T05:31:31.188Z,10.00
2022-08-28T05:33:59.778Z,11.98
2022-08-28T05:36:32.651Z,14.07
2022-08-28T05:39:02.481Z,9.20
2022-08-28T05:41:59.313Z,12.23
2022-08-28T05:47:48.075Z,9.20
2022-08-28T05:50:16.679Z,9.95
2022-08-28T05:52:45.407Z,9.43
2022-08-28T05:55:14.299Z,12.38
2022-08-28T05:57:42.759Z,11.57
2022-08-28T06:00:12.983Z,10.90
2022-08-28T06:02:41.967Z,12.82
2022-08-28T06:05:12.903Z,8.80
2022-08-28T06:07:41.854Z,11.60
2022-08-28T06:10:10.903Z,10.45
2022-08-28T06:12:39.075Z,9.48
2022-08-28T06:15:09.194Z,10.32
2022-08-28T06:17:37.979Z,11.07
2022-08-28T06:20:07.445Z,10.82
2022-08-28T06:22:36.879Z,12.52
2022-08-28T06:25:08.232Z,6.35
2022-08-28T06:27:39.320Z,8.13
2022-08-28T06:30:08.955Z,14.23
2022-08-28T06:32:37.031Z,9.80
2022-08-28T06:35:06.007Z,9.90
2022-08-28T06:37:34.123Z,10.23
2022-08-28T06:40:04.408Z,11.15
2022-08-28T06:42:32.490Z,16.05
2022-08-28T06:45:00.586Z,12.38
2022-08-28T06:47:28.689Z,12.13
2022-08-28T06:49:56.738Z,8.93
2022-08-28T06:52:24.844Z,11.13
2022-08-28T06:54:55.947Z,15.07
2022-08-28T06:57:26.589Z,12.15
2022-08-28T06:59:56.822Z,12.63
2022-08-28T07:02:28.314Z,10.80
2022-08-28T07:04:56.749Z,8.50
2022-08-28T07:07:32.504Z,8.95
2022-08-28T07:10:00.900Z,11.57
2022-08-28T07:12:30.422Z,13.55
2022-08-28T07:14:58.754Z,10.13
2022-08-28T07:17:26.977Z,10.25
2022-08-28T07:19:55.148Z,10.30
2022-08-28T07:22:23.271Z,7.72
2022-08-28T07:24:51.336Z,9.88
2022-08-28T07:27:19.736Z,11.05
2022-08-28T07:29:49.276Z,15.35
2022-08-28T07:32:17.447Z,11.05
2022-08-28T07:34:45.777Z,17.45
2022-08-28T07:37:15.429Z,13.07
2022-08-28T07:39:43.724Z,8.57
2022-08-28T07:42:35.438Z,10.80
2022-08-28T07:45:05.136Z,18.52
2022-08-28T07:47:33.316Z,11.10
2022-08-28T07:50:01.678Z,9.43
2022-08-28T07:52:29.864Z,9.70
2022-08-28T07:54:58.165Z,11.10
2022-08-28T07:57:26.403Z,12.70
2022-08-28T07:59:54.674Z,12.38
2022-08-28T08:02:24.088Z,16.35
2022-08-28T08:04:52.226Z,12.90
2022-08-28T08:07:20.623Z,9.32
2022-08-28T08:09:48.745Z,13.85
2022-08-28T08:12:18.190Z,12.18
2022-08-28T08:14:46.341Z,11.38
2022-08-28T08:17:14.655Z,8.77
2022-08-28T08:19:44.039Z,12.90
2022-08-28T08:22:12.516Z,11.98
2022-08-28T08:24:41.279Z,10.60
2022-08-28T08:27:10.602Z,10.07
2022-08-28T08:29:39.801Z,14.07
2022-08-28T08:32:09.614Z,15.90
2022-08-28T08:34:39.877Z,10.25
2022-08-28T08:37:09.890Z,10.38
2022-08-28T08:39:38.908Z,22.42
2022-08-28T08:42:11.548Z,14.43
2022-08-28T08:44:42.433Z,15.07
2022-08-28T08:47:15.375Z,11.60
2022-08-28T08:49:52.420Z,13.25
2022-08-28T08:52:35.585Z,10.75
2022-08-28T08:55:10.154Z,13.07
2022-08-28T08:57:39.465Z,14.55
2022-08-28T09:00:15.567Z,15.38
2022-08-28T09:02:51.460Z,10.38
2022-08-28T09:05:22.782Z,12.32
2022-08-28T09:07:57.682Z,14.40
2022-08-28T09:10:39.704Z,11.77
2022-08-28T09:13:20.002Z,8.10
2022-08-28T09:15:50.878Z,12.70
2022-08-28T09:18:22.336Z,12.55
2022-08-28T09:20:52.091Z,14.43
2022-08-28T09:23:23.162Z,14.10
2022-08-28T09:25:55.306Z,9.32
2022-08-28T09:28:26.615Z,12.93
2022-08-28T09:31:01.777Z,15.10
2022-08-28T09:33:41.796Z,13.75
2022-08-28T09:36:29.043Z,16.00
2022-08-28T09:39:10.723Z,13.75
2022-08-28T09:42:00.972Z,13.95
2022-08-28T09:44:29.159Z,11.68
2022-08-28T09:46:57.500Z,15.23
2022-08-28T09:49:28.563Z,13.57
2022-08-28T09:51:59.613Z,12.68
2022-08-28T09:54:34.700Z,15.52
2022-08-28T09:57:03.822Z,19.13
2022-08-28T09:59:32.324Z,15.15
2022-08-28T10:02:14.649Z,14.27
2022-08-28T10:04:59.575Z,17.83
2022-08-28T10:07:37.530Z,12.43
2022-08-28T10:10:19.559Z,16.13
2022-08-28T10:13:00.364Z,13.38
2022-08-28T10:15:41.266Z,9.65
2022-08-28T10:18:35.232Z,19.95
2022-08-28T10:21:10.696Z,16.17
2022-08-28T10:23:50.133Z,17.50
2022-08-28T10:26:30.884Z,15.07
2022-08-28T10:29:12.675Z,12.25
2022-08-28T10:31:47.976Z,11.88
2022-08-28T10:34:35.196Z,12.27
2022-08-28T10:37:09.609Z,10.68
2022-08-28T10:39:48.768Z,10.15
2022-08-28T10:42:27.842Z,13.73
2022-08-28T10:45:08.945Z,13.65
2022-08-28T10:47:41.940Z,14.48
2022-08-28T10:50:16.498Z,16.40
2022-08-28T10:52:49.883Z,13.98
2022-08-28T10:55:22.433Z,12.60
2022-08-28T10:57:57.798Z,13.20
2022-08-28T11:00:28.637Z,14.95
2022-08-28T11:02:59.450Z,10.35
2022-08-28T11:05:31.480Z,13.93
2022-08-28T11:08:04.128Z,14.00
2022-08-28T11:10:49.491Z,9.88
2022-08-28T11:13:51.494Z,10.60
2022-08-28T11:16:23.857Z,10.02
2022-08-28T11:19:22.797Z,14.35
2022-08-28T11:21:55.200Z,13.00
2022-08-28T11:24:32.310Z,18.65
2022-08-28T11:27:12.464Z,10.93
2022-08-28T11:30:33.061Z,18.27
2022-08-28T11:33:25.902Z,11.02
2022-08-28T11:35:54.135Z,9.43
2022-08-28T11:39:14.200Z,10.18
2022-08-28T11:42:32.296Z,11.27
2022-08-28T11:45:01.652Z,16.63
2022-08-28T11:47:56.701Z,16.77
2022-08-28T11:50:32.413Z,9.27
2022-08-28T11:53:23.105Z,11.20
2022-08-28T11:56:07.019Z,13.25
2022-08-28T11:58:40.540Z,8.52
2022-08-28T12:01:11.855Z,16.52
2022-08-28T12:03:43.183Z,10.55
2022-08-28T12:06:13.363Z,10.50
2022-08-28T12:09:12.069Z,16.48
2022-08-28T12:11:56.596Z,11.25
2022-08-28T12:15:16.254Z,19.80
2022-08-28T12:17:51.079Z,11.82
2022-08-28T12:20:37.791Z,10.73
2022-08-28T12:23:41.691Z,15.90
2022-08-28T12:26:17.715Z,12.98
2022-08-28T12:28:48.735Z,13.30
2022-08-28T12:32:04.318Z,12.63
2022-08-28T12:34:46.271Z,14.02
2022-08-28T12:37:39.532Z,13.80
2022-08-28T12:40:24.871Z,15.38
2022-08-28T12:42:56.295Z,13.35
2022-08-28T12:45:30.128Z,15.10
2022-08-28T12:48:01.428Z,18.55
2022-08-28T12:50:34.069Z,11.02
2022-08-28T12:53:05.161Z,10.57
2022-08-28T12:55:35.601Z,17.27
2022-08-28T12:58:03.747Z,11.18
2022-08-28T13:00:35.849Z,11.25
2022-08-28T13:03:08.739Z,10.80
2022-08-28T13:05:39.832Z,13.20
2022-08-28T13:08:11.309Z,14.98
2022-08-28T13:10:48.138Z,13.23
2022-08-28T13:13:21.990Z,14.38
2022-08-28T13:15:53.609Z,11.35
2022-08-28T13:18:47.498Z,11.38
2022-08-28T13:21:33.858Z,8.55
2022-08-28T13:24:43.711Z,15.27
2022-08-28T13:27:23.374Z,12.07
2022-08-28T13:30:02.858Z,11.05
2022-08-28T13:32:33.220Z,9.25
2022-08-28T13:35:31.844Z,10.70
2022-08-28T13:38:01.902Z,12.70
2022-08-28T13:43:24.387Z,13.13
2022-08-28T13:45:53.634Z,18.83
2022-08-28T13:48:23.572Z,14.60
2022-08-28T13:50:53.977Z,14.55
2022-08-28T13:53:22.314Z,18.08
2022-08-28T13:55:51.621Z,12.60
2022-08-28T13:58:19.786Z,11.32
2022-08-28T14:00:51.353Z,9.98
2022-08-28T14:03:36.457Z,8.15
2022-08-28T14:06:07.137Z,10.05
2022-08-28T14:08:35.787Z,12.02
2022-08-28T14:11:04.433Z,11.85
2022-08-28T14:13:32.937Z,15.60
2022-08-28T14:16:05.972Z,15.07
2022-08-28T14:18:34.732Z,14.60
2022-08-28T14:21:06.004Z,13.20
2022-08-28T14:23:34.723Z,12.35
2022-08-28T14:26:06.580Z,10.75
2022-08-28T14:28:34.684Z,9.95
2022-08-28T14:31:09.872Z,12.13
2022-08-28T14:33:40.549Z,11.25
2022-08-28T14:36:16.144Z,11.82
2022-08-28T14:38:44.257Z,8.75
2022-08-28T14:41:12.351Z,12.55
2022-08-28T14:43:40.431Z,14.70
2022-08-28T14:46:15.027Z,11.25
2022-08-28T14:48:43.276Z,10.32
2022-08-28T14:51:11.714Z,17.05
2022-08-28T14:53:39.851Z,14.23
2022-08-28T14:56:08.762Z,13.85
2022-08-28T14:58:37.475Z,30.00
2022-08-28T15:01:06.741Z,11.80
2022-08-28T15:03:36.884Z,12.88
2022-08-28T15:06:08.045Z,9.90
2022-08-28T15:08:37.927Z,11.23
2022-08-28T15:11:07.666Z,13.45
2022-08-28T15:13:35.835Z,12.48
2022-08-28T15:16:15.494Z,12.75
2022-08-28T15:18:46.676Z,15.48
2022-08-28T15:21:19.852Z,9.32
2022-08-28T15:23:50.426Z,9.50
2022-08-28T15:26:19.306Z,10.70
2022-08-28T15:28:47.521Z,10.95
2022-08-28T15:31:16.424Z,9.77
2022-08-28T15:33:45.941Z,6.90
2022-08-28T15:36:14.336Z,13.00
2022-08-28T15:38:59.859Z,12.75
2022-08-28T15:41:29.394Z,14.98
2022-08-28T15:44:01.166Z,7.20
2022-08-28T15:46:33.534Z,10.73
2022-08-28T15:49:03.899Z,12.27
2022-08-28T15:51:36.923Z,9.88
2022-08-28T15:54:06.055Z,8.65
2022-08-28T15:56:34.150Z,13.32
2022-08-28T15:59:02.235Z,10.50
2022-08-28T16:01:30.364Z,10.57
2022-08-28T16:03:58.474Z,11.23
2022-08-28T16:06:29.027Z,12.95
2022-08-28T16:08:58.626Z,12.73
2022-08-28T16:11:26.939Z,11.50
2022-08-28T16:13:55.456Z,7.80
2022-08-28T16:16:23.618Z,9.95
2022-08-28T16:18:53.538Z,11.10
2022-08-28T16:21:21.696Z,10.63
2022-08-28T16:23:51.953Z,11.75
2022-08-28T16:26:20.297Z,11.50
2022-08-28T16:28:48.515Z,9.38
2022-08-28T16:31:19.854Z,12.18
2022-08-28T16:33:49.810Z,10.93
2022-08-28T16:36:18.693Z,11.60
2022-08-28T16:38:55.449Z,10.35
2022-08-28T16:41:29.388Z,9.73
2022-08-28T16:44:00.876Z,15.10
2022-08-28T16:46:29.168Z,14.10
2022-08-28T16:48:57.319Z,11.68
2022-08-28T16:51:26.995Z,8.40
2022-08-28T16:53:57.423Z,9.52
2022-08-28T16:56:26.630Z,9.85
2022-08-28T16:58:54.990Z,12.05
2022-08-28T17:01:24.248Z,12.35
2022-08-28T17:03:53.977Z,12.27
2022-08-28T17:06:24.616Z,15.40
2022-08-28T17:08:57.682Z,14.07
2022-08-28T17:11:26.858Z,14.05
2022-08-28T17:13:55.456Z,11.15
2022-08-28T17:16:25.428Z,11.45
2022-08-28T17:18:53.746Z,14.40
2022-08-28T17:21:39.658Z,11.30
2022-08-28T17:24:12.548Z,9.95
2022-08-28T17:26:41.883Z,11.57
2022-08-28T17:29:10.328Z,10.20
2022-08-28T17:31:38.771Z,8.27
2022-08-28T17:34:07.437Z,14.20
2022-08-28T17:36:37.127Z,11.82
2022-08-28T17:39:08.336Z,11.52
2022-08-28T17:41:38.236Z,9.85
2022-08-28T17:44:07.436Z,17.13
2022-08-28T17:46:37.952Z,11.80
2022-08-28T17:49:08.473Z,10.52
2022-08-28T17:51:43.534Z,14.00
2022-08-28T17:54:13.923Z,13.25
2022-08-28T17:56:43.509Z,11.13
2022-08-28T17:59:12.134Z,12.00
2022-08-28T18:01:41.069Z,12.43
2022-08-28T18:04:10.489Z,13.02
2022-08-28T18:06:39.357Z,13.23
2022-08-28T18:09:09.667Z,12.50
2022-08-28T18:11:38.327Z,14.02
2022-08-28T18:14:08.785Z,9.65
2022-08-28T18:16:38.782Z,10.13
2022-08-28T18:19:08.943Z,11.07
2022-08-28T18:21:37.569Z,6.95
2022-08-28T18:24:06.472Z,7.50
2022-08-28T18:26:34.595Z,10.27
2022-08-28T18:29:02.697Z,14.45
2022-08-28T18:31:32.338Z,7.68
2022-08-28T18:34:00.801Z,7.78
2022-08-28T18:36:29.473Z,7.22
2022-08-28T18:38:57.933Z,8.25
2022-08-28T18:41:41.538Z,4.68
2022-08-28T18:44:13.274Z,7.63
2022-08-28T18:46:44.001Z,9.32
2022-08-28T18:49:12.991Z,5.78
2022-08-28T18:51:42.271Z,6.13
2022-08-28T18:54:10.605Z,5.30
2022-08-28T18:56:40.936Z,7.82
2022-08-28T18:59:09.753Z,6.75
2022-08-28T19:01:38.183Z,5.68
2022-08-28T19:04:09.078Z,5.97
2022-08-28T19:06:37.661Z,7.18
2022-08-28T19:09:06.520Z,8.02
2022-08-28T19:11:36.265Z,8.82
2022-08-28T19:14:04.806Z,6.60
2022-08-28T19:16:33.526Z,5.45
2022-08-28T19:19:02.043Z,6.25
2022-08-28T19:21:31.571Z,5.20
2022-08-28T19:23:59.687Z,8.32
2022-08-28T19:26:28.691Z,8.32
2022-08-28T19:28:57.048Z,6.20
2022-08-28T19:31:26.285Z,6.22
2022-08-28T19:33:54.775Z,5.45
2022-08-28T19:36:27.141Z,6.68
2022-08-28T19:38:56.671Z,4.43
2022-08-28T19:41:25.189Z,5.78
2022-08-28T19:43:53.440Z,4.40
2022-08-28T19:46:21.961Z,3.53
2022-08-28T19:48:50.562Z,6.03
2022-08-28T19:51:23.464Z,3.90
2022-08-28T19:53:57.228Z,4.45
2022-08-28T19:56:28.575Z,5.05
2022-08-28T19:58:59.042Z,7.82
2022-08-28T20:01:29.995Z,4.38
2022-08-28T20:03:59.097Z,5.18
2022-08-28T20:06:27.428Z,3.58
2022-08-28T20:08:55.611Z,4.07
2022-08-28T20:11:30.345Z,4.10
2022-08-28T20:14:04.793Z,3.70
2022-08-28T20:16:36.334Z,3.70
2022-08-28T20:19:04.760Z,3.40
2022-08-28T20:21:37.019Z,4.53
2022-08-28T20:24:10.329Z,3.38
2022-08-28T20:26:39.027Z,6.70
2022-08-28T20:29:10.048Z,4.20
2022-08-28T20:31:40.411Z,6.03
2022-08-28T20:34:09.210Z,5.60
2022-08-28T20:36:37.465Z,4.47
2022-08-28T20:39:09.508Z,3.90
2022-08-28T20:41:40.340Z,7.00
2022-08-28T20:44:12.894Z,3.03
2022-08-28T20:46:42.373Z,2.72
2022-08-28T20:49:11.497Z,3.97
2022-08-28T20:51:56.838Z,3.67
2022-08-28T20:54:29.383Z,5.95
2022-08-28T20:56:58.709Z,5.25
2022-08-28T20:59:33.415Z,3.22
2022-08-28T21:02:10.419Z,4.05
2022-08-28T21:04:40.057Z,3.90
2022-08-28T21:07:08.782Z,3.95
2022-08-28T21:10:05.346Z,4.30
2022-08-28T21:12:25.457Z,3.72
2022-08-28T21:14:54.943Z,5.05
2022-08-28T21:17:29.045Z,6.60
2022-08-28T21:19:59.044Z,4.63
2022-08-28T21:22:27.174Z,4.57
2022-08-28T21:24:55.580Z,3.85
2022-08-28T21:27:23.884Z,3.88
2022-08-28T21:29:52.107Z,4.18
2022-08-28T21:32:21.527Z,3.13
2022-08-28T21:34:49.660Z,4.50
2022-08-28T21:37:17.802Z,3.47
2022-08-28T21:39:45.943Z,4.90
2022-08-28T21:42:14.101Z,7.53
2022-08-28T21:44:48.645Z,6.70
2022-08-28T21:47:23.296Z,4.85
2022-08-28T21:49:52.768Z,4.60
2022-08-28T21:52:22.893Z,4.35
2022-08-28T21:54:51.122Z,4.32
2022-08-28T21:57:19.248Z,4.53
2022-08-28T21:59:47.331Z,3.45
2022-08-28T22:02:15.523Z,4.93
2022-08-28T22:04:45.035Z,4.90
2022-08-28T22:07:14.144Z,4.40
2022-08-28T22:09:42.330Z,7.88
